Time;durP1;ratioP1;P1;durP2;ratioP2;P2;SDS_P1;SDS_P2;PMS_P1;PMS_P2;Temp;Humidity;BMP_temperature;BMP_pressure;BME280_temperature;BME280_humidity;BME280_pressure;Samples;Min_cycle;Max_cycle;Signal;HPM_P1;HPM_P2
2023/06/23 00:01:33;;;;;;;21.05;14.40;;;25.00;68.20;;;;;;5139114;27;20031;-71
2023/06/23 00:03:59;;;;;;;19.90;14.48;;;24.90;68.70;;;;;;5139142;27;20030;-71
2023/06/23 00:06:26;;;;;;;21.70;13.77;;;24.90;68.90;;;;;;5139107;27;20019;-71
2023/06/23 00:08:52;;;;;;;19.60;13.95;;;24.80;68.90;;;;;;5139013;27;20027;-71
2023/06/23 00:11:19;;;;;;;17.48;13.00;;;24.80;68.40;;;;;;5139584;27;20019;-71
2023/06/23 00:13:47;;;;;;;15.07;10.93;;;24.70;68.60;;;;;;5138919;27;20043;-71
2023/06/23 00:16:13;;;;;;;17.70;12.05;;;24.70;68.60;;;;;;5138939;27;20027;-70
2023/06/23 00:18:39;;;;;;;18.40;11.52;;;24.80;68.60;;;;;;5138767;27;20057;-71
2023/06/23 00:21:09;;;;;;;16.20;12.57;;;24.70;68.80;;;;;;5137317;27;20027;-70
2023/06/23 00:23:36;;;;;;;15.15;12.20;;;24.80;68.70;;;;;;5139363;27;20065;-71
2023/06/23 00:26:04;;;;;;;13.48;10.90;;;24.80;68.90;;;;;;5138767;27;20090;-71
2023/06/23 00:28:30;;;;;;;13.45;10.68;;;24.80;68.70;;;;;;5138578;27;20348;-71
2023/06/23 00:30:57;;;;;;;14.18;10.77;;;24.80;68.60;;;;;;5138692;27;20022;-71
2023/06/23 00:33:23;;;;;;;12.82;10.10;;;24.70;68.60;;;;;;5138633;27;20508;-71
2023/06/23 00:35:49;;;;;;;12.32;9.93;;;24.80;68.50;;;;;;5139067;27;20019;-71
2023/06/23 00:38:15;;;;;;;13.93;10.60;;;24.80;68.40;;;;;;5138748;27;20031;-70
2023/06/23 00:40:41;;;;;;;17.48;13.05;;;24.80;68.40;;;;;;5138768;27;20019;-71
2023/06/23 00:43:09;;;;;;;14.80;12.05;;;24.80;68.80;;;;;;5138415;27;20027;-71
2023/06/23 00:45:35;;;;;;;14.27;11.30;;;24.80;69.10;;;;;;5138860;27;20023;-71
2023/06/23 00:48:04;;;;;;;14.75;10.48;;;24.70;69.00;;;;;;5138545;27;20164;-70
2023/06/23 00:50:30;;;;;;;15.00;10.68;;;24.60;69.00;;;;;;5138518;27;20019;-71
2023/06/23 00:52:57;;;;;;;19.38;12.43;;;24.60;69.10;;;;;;5138192;27;20035;-71
2023/06/23 00:55:27;;;;;;;13.00;9.70;;;24.60;69.30;;;;;;5138397;27;20027;-71
2023/06/23 00:57:58;;;;;;;13.20;9.82;;;24.60;69.20;;;;;;5137773;27;20051;-71
2023/06/23 01:00:27;;;;;;;14.13;10.30;;;24.50;69.00;;;;;;5137940;27;20436;-71
2023/06/23 01:02:54;;;;;;;15.73;11.30;;;24.60;68.90;;;;;;5137971;27;20023;-71
2023/06/23 01:05:26;;;;;;;16.10;11.23;;;24.60;69.00;;;;;;5137938;27;20015;-70
2023/06/23 01:08:25;;;;;;;18.75;11.38;;;24.60;69.00;;;;;;5137714;27;20027;-71
2023/06/23 01:11:23;;;;;;;13.32;10.23;;;24.60;69.50;;;;;;5138096;27;20121;-70
2023/06/23 01:14:08;;;;;;;16.58;11.23;;;24.50;69.30;;;;;;5137997;27;20105;-71
2023/06/23 01:16:41;;;;;;;15.10;12.15;;;24.50;69.60;;;;;;5137688;27;20068;-71
2023/06/23 01:19:19;;;;;;;15.30;11.65;;;24.50;69.50;;;;;;5137499;27;20039;-71
2023/06/23 01:22:21;;;;;;;17.05;12.60;;;24.40;69.60;;;;;;5138130;27;20031;-71
2023/06/23 01:25:12;;;;;;;19.30;13.98;;;24.40;69.90;;;;;;5138116;27;20019;-71
2023/06/23 01:27:43;;;;;;;16.15;12.50;;;24.40;70.50;;;;;;5137714;27;20023;-70
2023/06/23 01:30:14;;;;;;;18.95;13.45;;;24.30;69.90;;;;;;5137503;27;20037;-71
2023/06/23 01:32:53;;;;;;;16.13;13.32;;;24.30;69.90;;;;;;5136866;27;20048;-71
2023/06/23 01:35:24;;;;;;;18.88;14.40;;;24.30;70.00;;;;;;5138485;27;20101;-70
2023/06/23 01:37:54;;;;;;;21.83;17.15;;;24.20;70.30;;;;;;5137457;27;20023;-71
2023/06/23 01:40:23;;;;;;;36.15;25.23;;;24.10;71.00;;;;;;5137781;27;20072;-71
2023/06/23 01:43:04;;;;;;;82.78;52.63;;;24.00;71.20;;;;;;5137766;27;20452;-71
2023/06/23 01:45:30;;;;;;;84.95;54.90;;;24.00;71.00;;;;;;5137437;27;20074;-70
2023/06/23 01:48:02;;;;;;;78.07;52.40;;;24.00;70.80;;;;;;5137288;27;20468;-70
2023/06/23 01:50:31;;;;;;;76.93;49.07;;;24.00;70.70;;;;;;5137410;27;20055;-71
2023/06/23 01:53:00;;;;;;;81.57;53.80;;;24.00;70.80;;;;;;5137286;27;20042;-70
2023/06/23 01:55:27;;;;;;;71.30;46.92;;;23.90;71.10;;;;;;5137192;27;20076;-70
2023/06/23 01:57:54;;;;;;;38.72;27.73;;;23.90;71.50;;;;;;5136725;27;20051;-70
2023/06/23 02:00:22;;;;;;;34.25;25.23;;;23.90;71.50;;;;;;5137178;27;20045;-69
2023/06/23 02:02:52;;;;;;;33.78;21.90;;;23.90;71.20;;;;;;5137083;27;20023;-70
2023/06/23 02:05:22;;;;;;;27.60;19.60;;;23.90;71.10;;;;;;5137117;27;20033;-70
2023/06/23 02:07:52;;;;;;;25.65;17.90;;;23.90;71.10;;;;;;5135743;27;20367;-70
2023/06/23 02:10:21;;;;;;;27.92;17.27;;;23.90;71.10;;;;;;5136785;27;20455;-71
2023/06/23 02:12:49;;;;;;;22.67;16.80;;;23.80;71.20;;;;;;5136091;27;20023;-70
2023/06/23 02:15:17;;;;;;;21.05;15.32;;;23.80;71.50;;;;;;5137220;27;20019;-70
2023/06/23 02:17:45;;;;;;;17.10;14.25;;;23.70;71.40;;;;;;5136696;27;20098;-70
2023/06/23 02:20:16;;;;;;;17.70;13.82;;;23.70;71.50;;;;;;5136589;27;20023;-71
2023/06/23 02:22:50;;;;;;;16.95;13.15;;;23.70;71.50;;;;;;5137142;27;20019;-71
2023/06/23 02:25:17;;;;;;;16.20;13.27;;;23.70;71.50;;;;;;5136772;27;20068;-71
2023/06/23 02:27:45;;;;;;;16.77;13.13;;;23.70;71.60;;;;;;5135520;27;20019;-71
2023/06/23 02:30:12;;;;;;;18.52;13.82;;;23.70;71.60;;;;;;5136463;27;20069;-70
2023/06/23 02:32:39;;;;;;;25.10;17.85;;;23.70;71.80;;;;;;5136358;27;20337;-71
2023/06/23 02:35:08;;;;;;;24.23;17.13;;;23.60;72.20;;;;;;5136629;27;20031;-70
2023/06/23 02:37:36;;;;;;;18.30;14.52;;;23.60;72.20;;;;;;5136406;27;20066;-71
2023/06/23 02:40:10;;;;;;;17.35;13.32;;;23.50;72.20;;;;;;5136246;27;20048;-70
2023/06/23 02:42:40;;;;;;;16.23;12.90;;;23.50;72.00;;;;;;5136888;27;20031;-70
2023/06/23 02:45:14;;;;;;;18.35;13.80;;;23.50;72.10;;;;;;5136208;27;20019;-71
2023/06/23 02:47:43;;;;;;;16.02;12.98;;;23.50;72.00;;;;;;5136594;27;20027;-70
2023/06/23 02:50:14;;;;;;;18.15;12.55;;;23.50;72.00;;;;;;5136174;27;20529;-70
2023/06/23 02:52:47;;;;;;;20.30;12.85;;;23.50;72.10;;;;;;5136496;27;20038;-70
2023/06/23 02:55:18;;;;;;;15.52;12.60;;;23.50;72.10;;;;;;5136741;27;20102;-71
2023/06/23 02:57:48;;;;;;;16.42;12.90;;;23.50;72.20;;;;;;5135898;27;20047;-70
2023/06/23 03:00:19;;;;;;;16.20;12.18;;;23.40;72.20;;;;;;5136326;27;20116;-70
2023/06/23 03:02:51;;;;;;;18.15;13.95;;;23.40;72.20;;;;;;5136357;27;20034;-71
2023/06/23 03:05:17;;;;;;;21.27;17.05;;;23.50;72.20;;;;;;5136593;27;20091;-71
2023/06/23 03:07:43;;;;;;;25.45;17.90;;;23.50;72.50;;;;;;5135916;27;20027;-70
2023/06/23 03:10:09;;;;;;;20.90;16.33;;;23.50;73.10;;;;;;5135660;28;20098;-71
2023/06/23 03:12:35;;;;;;;18.55;13.18;;;23.40;73.00;;;;;;5136235;27;20051;-71
2023/06/23 03:15:02;;;;;;;15.13;12.80;;;23.40;72.70;;;;;;5136168;28;20079;-70
2023/06/23 03:17:31;;;;;;;19.85;13.88;;;23.40;72.60;;;;;;5134866;28;20039;-70
2023/06/23 03:20:10;;;;;;;17.92;12.68;;;23.40;72.60;;;;;;5135918;27;20019;-70
2023/06/23 03:22:47;;;;;;;16.27;12.77;;;23.40;72.50;;;;;;5134931;28;20057;-71
2023/06/23 03:25:25;;;;;;;18.50;13.23;;;23.40;72.50;;;;;;5136111;28;20021;-70
2023/06/23 03:27:56;;;;;;;18.55;13.48;;;23.40;72.50;;;;;;5136179;27;20055;-71
2023/06/23 03:30:35;;;;;;;18.65;13.90;;;23.50;72.40;;;;;;5135765;27;20337;-71
2023/06/23 03:33:07;;;;;;;17.73;13.15;;;23.50;72.40;;;;;;5135722;27;20092;-71
2023/06/23 03:35:40;;;;;;;19.73;14.77;;;23.60;72.30;;;;;;5136340;27;20106;-71
2023/06/23 03:38:10;;;;;;;17.67;13.55;;;23.50;72.30;;;;;;5135868;27;20279;-70
2023/06/23 03:40:57;;;;;;;17.05;13.77;;;23.50;72.20;;;;;;5135541;28;20038;-70
2023/06/23 03:43:30;;;;;;;22.67;17.45;;;23.40;72.20;;;;;;5136000;27;20125;-71
2023/06/23 03:46:02;;;;;;;18.48;14.63;;;23.40;72.30;;;;;;5135983;27;20027;-70
2023/06/23 03:48:31;;;;;;;18.52;14.30;;;23.40;72.40;;;;;;5136140;27;20113;-70
2023/06/23 03:51:00;;;;;;;18.83;14.27;;;23.40;72.40;;;;;;5135872;27;20056;-70
2023/06/23 03:53:30;;;;;;;15.57;13.45;;;23.40;72.40;;;;;;5136143;27;20054;-70
2023/06/23 03:55:59;;;;;;;21.92;16.85;;;23.40;72.30;;;;;;5138211;27;20027;-70
2023/06/23 03:58:26;;;;;;;20.42;14.95;;;23.40;72.50;;;;;;5138950;27;20054;-71
2023/06/23 04:00:53;;;;;;;17.83;13.85;;;23.40;72.40;;;;;;5139535;27;20416;-71
2023/06/23 04:03:21;;;;;;;15.98;12.77;;;23.50;72.30;;;;;;5139180;27;20016;-70
2023/06/23 04:05:49;;;;;;;13.52;11.32;;;23.50;72.20;;;;;;5139183;27;20446;-70
2023/06/23 04:08:17;;;;;;;17.05;12.15;;;23.60;72.10;;;;;;5139546;27;20365;-70
2023/06/23 04:10:45;;;;;;;14.82;11.70;;;23.70;72.00;;;;;;5139040;27;20031;-70
2023/06/23 04:13:13;;;;;;;16.95;13.13;;;23.90;71.80;;;;;;5139300;27;20434;-70
2023/06/23 04:15:40;;;;;;;19.90;15.05;;;23.90;71.70;;;;;;5120834;27;20364;-70
2023/06/23 04:18:10;;;;;;;17.23;13.07;;;24.00;71.80;;;;;;5138993;27;20074;-70
2023/06/23 04:20:38;;;;;;;26.55;17.23;;;24.10;71.50;;;;;;5139418;27;20421;-70
2023/06/23 04:23:05;;;;;;;17.15;13.60;;;24.20;71.50;;;;;;5138461;27;20055;-70
2023/06/23 04:25:32;;;;;;;16.85;12.00;;;24.30;71.30;;;;;;5138788;27;20077;-70
2023/06/23 04:28:02;;;;;;;15.15;11.70;;;24.40;71.00;;;;;;5138874;27;20031;-70
2023/06/23 04:30:29;;;;;;;15.85;11.98;;;24.50;70.70;;;;;;5139243;27;20424;-70
2023/06/23 04:32:55;;;;;;;15.52;12.20;;;24.70;70.40;;;;;;5138899;27;20031;-70
2023/06/23 04:35:21;;;;;;;16.40;11.80;;;24.70;70.30;;;;;;5138570;27;20031;-71
2023/06/23 04:37:57;;;;;;;14.15;11.55;;;24.80;70.10;;;;;;5138640;27;20016;-70
2023/06/23 04:40:31;;;;;;;15.73;11.52;;;24.90;69.90;;;;;;5139085;27;20031;-70
2023/06/23 04:43:12;;;;;;;16.25;11.85;;;25.10;69.80;;;;;;5138748;27;20061;-70
2023/06/23 04:45:50;;;;;;;16.75;11.98;;;25.40;69.50;;;;;;5138633;27;20023;-70
2023/06/23 04:48:21;;;;;;;18.80;13.30;;;25.50;69.00;;;;;;5138575;27;20051;-71
2023/06/23 04:50:48;;;;;;;18.02;15.65;;;25.80;68.50;;;;;;5138845;27;20100;-70
2023/06/23 04:53:21;;;;;;;15.02;12.18;;;26.00;68.60;;;;;;5138204;27;20019;-70
2023/06/23 04:55:56;;;;;;;17.95;12.38;;;26.20;68.20;;;;;;5138423;27;20062;-71
2023/06/23 04:58:25;;;;;;;13.85;11.05;;;26.70;67.80;;;;;;5138091;27;20050;-70
2023/06/23 05:00:51;;;;;;;17.10;14.05;;;27.20;66.60;;;;;;5138114;27;20019;-71
2023/06/23 05:03:20;;;;;;;18.25;12.95;;;27.70;65.90;;;;;;5138029;27;20111;-71
2023/06/23 05:05:49;;;;;;;18.65;13.98;;;28.20;65.10;;;;;;5137966;27;20034;-71
2023/06/23 05:08:15;;;;;;;19.92;14.35;;;28.60;63.40;;;;;;5138403;27;20019;-71
2023/06/23 05:10:44;;;;;;;18.10;14.63;;;28.70;62.60;;;;;;5138360;27;20030;-70
2023/06/23 05:13:17;;;;;;;17.75;12.73;;;28.60;62.40;;;;;;5137823;27;20509;-71
2023/06/23 05:15:48;;;;;;;18.27;13.50;;;28.80;62.70;;;;;;5137713;27;20073;-71
2023/06/23 05:18:17;;;;;;;16.15;11.43;;;29.10;61.90;;;;;;5137741;27;20730;-71
2023/06/23 05:20:45;;;;;;;17.48;12.85;;;29.50;61.40;;;;;;5138190;27;20019;-71
2023/06/23 05:23:17;;;;;;;16.40;11.32;;;30.10;60.40;;;;;;5137590;27;20051;-71
2023/06/23 05:25:46;;;;;;;13.60;11.18;;;30.30;59.40;;;;;;5138378;27;20048;-71
2023/06/23 05:28:15;;;;;;;14.32;10.38;;;30.10;59.30;;;;;;5137749;27;20027;-71
2023/06/23 05:30:44;;;;;;;15.20;10.68;;;29.90;59.50;;;;;;5136466;27;20015;-71
2023/06/23 05:33:11;;;;;;;14.02;10.68;;;29.80;59.80;;;;;;5137957;27;20436;-71
2023/06/23 05:35:40;;;;;;;16.92;11.68;;;29.90;60.00;;;;;;5137360;27;20023;-71
2023/06/23 05:38:09;;;;;;;14.20;9.57;;;30.50;59.60;;;;;;5137163;27;20031;-71
2023/06/23 05:40:35;;;;;;;13.65;9.95;;;31.10;58.40;;;;;;5137561;27;20019;-71
2023/06/23 05:43:02;;;;;;;12.65;10.30;;;31.30;57.60;;;;;;5137193;27;20282;-71
2023/06/23 05:45:28;;;;;;;15.10;10.73;;;31.40;57.30;;;;;;5137133;27;20023;-71
2023/06/23 05:48:14;;;;;;;12.55;10.50;;;31.40;56.90;;;;;;5137088;27;20038;-71
2023/06/23 05:50:42;;;;;;;14.88;11.32;;;31.20;56.60;;;;;;5137357;27;20023;-71
2023/06/23 05:53:16;;;;;;;13.90;10.93;;;31.00;57.00;;;;;;5137035;27;20085;-71
2023/06/23 05:56:10;;;;;;;15.75;11.20;;;30.70;57.40;;;;;;5137622;27;20103;-71
2023/06/23 05:58:41;;;;;;;14.43;11.32;;;30.50;57.80;;;;;;5132876;27;20509;-71
2023/06/23 06:01:12;;;;;;;14.45;11.10;;;30.40;58.20;;;;;;5137233;27;20217;-71
2023/06/23 06:03:44;;;;;;;20.45;11.82;;;30.40;58.40;;;;;;5136888;27;20403;-71
2023/06/23 06:06:11;;;;;;;14.03;10.47;;;30.40;58.40;;;;;;5137231;27;20130;-71
2023/06/23 06:08:39;;;;;;;16.52;11.65;;;30.30;58.50;;;;;;5136730;27;20034;-71
2023/06/23 06:11:06;;;;;;;13.80;11.20;;;30.10;58.90;;;;;;5136780;27;20027;-70
2023/06/23 06:13:41;;;;;;;15.85;11.35;;;29.90;59.30;;;;;;5136930;27;20391;-70
2023/06/23 06:16:10;;;;;;;13.70;10.30;;;29.70;59.60;;;;;;5136651;27;20035;-70
2023/06/23 06:18:38;;;;;;;13.85;11.40;;;29.50;60.00;;;;;;5135028;27;20051;-71
2023/06/23 06:21:07;;;;;;;15.75;12.02;;;29.30;60.40;;;;;;5136554;27;20479;-71
2023/06/23 06:23:34;;;;;;;14.13;10.65;;;29.20;60.70;;;;;;5136300;27;20031;-70
2023/06/23 06:26:01;;;;;;;14.60;11.43;;;29.00;61.10;;;;;;5136384;27;20058;-69
2023/06/23 06:28:29;;;;;;;14.98;11.77;;;28.90;61.30;;;;;;5136355;27;20031;-69
2023/06/23 06:30:58;;;;;;;14.43;11.82;;;29.10;61.40;;;;;;5135404;27;20333;-69
2023/06/23 06:33:24;;;;;;;15.90;11.85;;;29.40;61.20;;;;;;5135426;27;20038;-70
2023/06/23 06:35:52;;;;;;;16.15;12.48;;;29.80;60.50;;;;;;5136317;27;20102;-70
2023/06/23 06:38:21;;;;;;;16.40;12.57;;;30.00;60.00;;;;;;5136191;27;20020;-70
2023/06/23 06:40:50;;;;;;;15.05;12.50;;;30.10;59.80;;;;;;5136846;27;20038;-69
2023/06/23 06:43:17;;;;;;;14.18;12.00;;;30.10;59.90;;;;;;5136315;27;20054;-70
2023/06/23 06:45:44;;;;;;;13.65;12.15;;;30.20;60.00;;;;;;5136613;27;20019;-70
2023/06/23 06:48:12;;;;;;;14.60;11.27;;;30.30;59.80;;;;;;5136139;27;20061;-69
2023/06/23 06:50:42;;;;;;;14.75;12.02;;;30.50;59.50;;;;;;5136187;27;20531;-69
2023/06/23 06:53:09;;;;;;;17.08;13.20;;;30.50;59.40;;;;;;5136334;27;20023;-69
2023/06/23 06:55:38;;;;;;;15.95;12.48;;;30.60;59.50;;;;;;5135469;28;20463;-69
2023/06/23 06:58:04;;;;;;;15.52;12.68;;;30.70;59.30;;;;;;5135548;27;20476;-68
2023/06/23 07:00:31;;;;;;;19.80;12.23;;;30.70;59.20;;;;;;5136332;27;20023;-69
2023/06/23 07:02:58;;;;;;;17.98;13.15;;;30.70;59.20;;;;;;5136060;27;20020;-69
2023/06/23 07:05:24;;;;;;;18.63;14.63;;;30.80;59.20;;;;;;5136004;27;20027;-69
2023/06/23 07:07:51;;;;;;;20.35;13.75;;;30.90;59.10;;;;;;5135860;28;20027;-69
2023/06/23 07:10:18;;;;;;;16.42;12.30;;;31.20;58.70;;;;;;5134987;28;20027;-69
2023/06/23 07:12:44;;;;;;;18.70;13.25;;;31.30;58.20;;;;;;5134886;28;20031;-70
2023/06/23 07:15:10;;;;;;;15.13;11.68;;;31.60;57.60;;;;;;5135945;27;20025;-70
2023/06/23 07:17:36;;;;;;;21.00;13.68;;;31.80;56.90;;;;;;5135970;27;20039;-70
2023/06/23 07:20:02;;;;;;;14.25;11.10;;;32.00;56.30;;;;;;5135010;28;20486;-69
2023/06/23 07:22:28;;;;;;;15.77;10.70;;;32.10;55.80;;;;;;5135317;27;20019;-69
2023/06/23 07:24:55;;;;;;;16.40;11.45;;;32.20;55.50;;;;;;5134702;27;20102;-70
2023/06/23 07:27:21;;;;;;;15.70;10.45;;;32.20;55.00;;;;;;5135226;28;20015;-70
2023/06/23 07:29:48;;;;;;;14.70;11.18;;;32.00;54.70;;;;;;5135804;27;20381;-69
2023/06/23 07:32:14;;;;;;;13.20;9.07;;;32.10;54.40;;;;;;5138662;27;20027;-69
2023/06/23 07:34:41;;;;;;;11.52;8.00;;;32.00;54.00;;;;;;5139541;27;20031;-69
2023/06/23 07:37:08;;;;;;;12.70;9.23;;;32.10;53.70;;;;;;5139704;27;20026;-69
2023/06/23 07:39:36;;;;;;;13.40;10.00;;;32.30;53.30;;;;;;5138447;27;20074;-69
2023/06/23 07:42:04;;;;;;;14.82;9.35;;;32.40;52.80;;;;;;5138547;27;20019;-69
2023/06/23 07:44:31;;;;;;;12.57;9.77;;;32.50;52.50;;;;;;5139404;27;20016;-69
2023/06/23 07:47:01;;;;;;;15.32;9.77;;;32.70;52.40;;;;;;5139310;27;20027;-69
2023/06/23 07:49:26;;;;;;;14.95;10.32;;;32.80;52.10;;;;;;5139709;27;20080;-69
2023/06/23 07:51:53;;;;;;;14.52;10.80;;;32.70;51.50;;;;;;5139494;27;20023;-69
2023/06/23 07:54:19;;;;;;;16.92;10.98;;;32.60;51.40;;;;;;5139476;27;20027;-69
2023/06/23 07:56:45;;;;;;;16.90;10.68;;;32.50;51.40;;;;;;5139768;27;20080;-70
2023/06/23 07:59:12;;;;;;;12.10;9.05;;;32.40;51.50;;;;;;5138118;27;20047;-69
2023/06/23 08:01:38;;;;;;;12.13;8.80;;;32.40;51.80;;;;;;5139260;27;20088;-70
2023/06/23 08:04:04;;;;;;;17.60;10.55;;;32.40;52.00;;;;;;5137753;27;20436;-70
2023/06/23 08:06:37;;;;;;;17.80;10.70;;;32.50;51.60;;;;;;5138015;27;20016;-69
2023/06/23 08:09:06;;;;;;;13.63;10.10;;;32.70;51.40;;;;;;5138590;27;20058;-69
2023/06/23 08:11:32;;;;;;;17.83;11.77;;;32.70;51.30;;;;;;5139534;27;20057;-68
2023/06/23 08:14:00;;;;;;;21.13;11.40;;;32.70;51.40;;;;;;5139160;27;20022;-69
2023/06/23 08:16:27;;;;;;;16.10;10.77;;;32.70;51.40;;;;;;5138854;27;20113;-69
2023/06/23 08:18:53;;;;;;;20.17;12.32;;;32.70;51.30;;;;;;5139149;27;20031;-69
2023/06/23 08:21:19;;;;;;;17.52;12.02;;;32.70;51.40;;;;;;5138941;27;20019;-68
2023/06/23 08:23:48;;;;;;;17.92;12.00;;;32.70;51.30;;;;;;5138727;27;20063;-70
2023/06/23 08:26:15;;;;;;;17.35;12.38;;;32.80;51.30;;;;;;5137676;27;20019;-69
2023/06/23 08:28:41;;;;;;;19.08;13.27;;;32.80;51.20;;;;;;5138540;27;20046;-69
2023/06/23 08:31:07;;;;;;;21.65;12.30;;;32.80;51.00;;;;;;5138572;27;20057;-68
2023/06/23 08:33:33;;;;;;;16.50;12.15;;;32.70;51.00;;;;;;5138795;27;20031;-69
2023/06/23 08:36:00;;;;;;;19.02;12.13;;;32.60;50.90;;;;;;5137408;27;20129;-69
2023/06/23 08:38:26;;;;;;;16.13;11.43;;;32.60;51.00;;;;;;5138427;27;20034;-68
2023/06/23 08:40:54;;;;;;;15.30;11.05;;;32.60;51.00;;;;;;5136568;27;20574;-69
2023/06/23 08:43:26;;;;;;;15.07;11.60;;;32.60;51.00;;;;;;5140395;27;20034;-69
2023/06/23 08:45:58;;;;;;;15.18;11.10;;;32.70;50.70;;;;;;5144629;27;20031;-69
2023/06/23 08:48:28;;;;;;;;;;;32.60;50.60;;;;;;5146463;27;20031;-69
2023/06/23 08:50:56;;;;;;;15.73;10.95;;;32.50;49.40;;;;;;5144576;27;19907;-70
2023/06/23 08:53:23;;;;;;;14.50;10.30;;;32.40;50.50;;;;;;5146136;27;20046;-69
2023/06/23 08:55:56;;;;;;;13.65;10.65;;;32.40;50.40;;;;;;5142438;27;20038;-69
2023/06/23 08:58:24;;;;;;;16.00;9.85;;;32.40;50.50;;;;;;5137725;27;20400;-69
2023/06/23 09:00:52;;;;;;;12.82;9.57;;;32.40;50.70;;;;;;5138030;27;20071;-69
2023/06/23 09:03:20;;;;;;;16.40;11.07;;;32.40;50.40;;;;;;5137023;27;20023;-69
2023/06/23 09:05:46;;;;;;;13.70;10.10;;;32.40;50.10;;;;;;5138237;27;20093;-69
2023/06/23 09:08:14;;;;;;;11.75;9.93;;;32.40;50.00;;;;;;5137940;27;20460;-69
2023/06/23 09:11:04;;;;;;;13.50;9.80;;;32.40;50.10;;;;;;5136955;27;20110;-70
2023/06/23 09:13:40;;;;;;;18.00;10.63;;;32.50;49.70;;;;;;5136341;27;20031;-70
2023/06/23 09:16:10;;;;;;;16.20;10.38;;;32.70;49.90;;;;;;5137806;27;20031;-70
2023/06/23 09:18:40;;;;;;;14.10;11.00;;;32.70;49.60;;;;;;5136638;27;20042;-70
2023/06/23 09:21:09;;;;;;;14.40;11.05;;;32.70;49.70;;;;;;5137516;27;20033;-69
2023/06/23 09:23:38;;;;;;;16.77;10.88;;;32.90;49.70;;;;;;5138137;27;20019;-70
2023/06/23 09:26:18;;;;;;;16.85;12.85;;;32.90;49.60;;;;;;5138144;27;20023;-69
2023/06/23 09:28:44;;;;;;;14.40;10.65;;;32.90;48.00;;;;;;5137807;27;20452;-69
2023/06/23 09:31:16;;;;;;;14.88;10.82;;;32.90;48.60;;;;;;5137520;27;20099;-69
2023/06/23 09:33:47;;;;;;;15.48;11.30;;;32.90;48.50;;;;;;5137502;27;20038;-70
2023/06/23 09:36:13;;;;;;;14.60;11.20;;;32.90;48.80;;;;;;5137440;27;20080;-70
2023/06/23 09:38:40;;;;;;;15.75;10.63;;;32.70;49.20;;;;;;5137212;27;20027;-70
2023/06/23 09:41:13;;;;;;;17.52;11.45;;;32.60;49.30;;;;;;5137175;27;20333;-69
2023/06/23 09:43:40;;;;;;;;;;;32.40;49.70;;;;;;5137643;27;20019;-69
2023/06/23 09:46:15;;;;;;;15.48;11.18;;;32.20;50.10;;;;;;5137038;27;19904;-70
2023/06/23 09:48:43;;;;;;;16.23;10.98;;;32.00;50.60;;;;;;5137123;27;20033;-70
2023/06/23 09:51:10;;;;;;;14.88;10.80;;;31.80;50.60;;;;;;5137114;27;20027;-70
2023/06/23 09:53:42;;;;;;;13.02;9.18;;;31.70;50.90;;;;;;5136338;27;20027;-69
2023/06/23 09:56:19;;;;;;;11.88;9.25;;;31.60;51.10;;;;;;5137297;27;20060;-70
2023/06/23 09:58:47;;;;;;;15.63;10.45;;;31.50;51.20;;;;;;5136745;27;20368;-70
2023/06/23 10:01:18;;;;;;;16.15;10.68;;;31.40;51.70;;;;;;5136944;27;20023;-70
2023/06/23 10:03:52;;;;;;;12.73;9.75;;;31.40;51.80;;;;;;5136379;27;20011;-70
2023/06/23 10:06:32;;;;;;;15.77;10.77;;;31.20;52.00;;;;;;5137143;27;20028;-70
2023/06/23 10:09:00;;;;;;;20.20;10.82;;;31.20;52.20;;;;;;5135702;27;20031;-70
2023/06/23 10:11:32;;;;;;;17.65;10.63;;;31.10;52.20;;;;;;5137287;27;20076;-70
2023/06/23 10:14:05;;;;;;;17.17;10.77;;;31.00;52.30;;;;;;5136631;27;20031;-70
2023/06/23 10:16:35;;;;;;;13.90;9.00;;;30.80;52.50;;;;;;5136672;27;20031;-70
2023/06/23 10:19:02;;;;;;;12.95;9.05;;;30.70;52.80;;;;;;5136479;27;20401;-70
2023/06/23 10:21:32;;;;;;;17.05;10.73;;;30.60;53.00;;;;;;5136583;27;20023;-70
2023/06/23 10:24:25;;;;;;;21.50;11.63;;;30.50;53.40;;;;;;5136538;27;20435;-70
2023/06/23 10:26:58;;;;;;;13.03;9.83;;;30.20;53.00;;;;;;5137142;27;20023;-70
2023/06/23 10:29:24;;;;;;;13.30;9.30;;;29.80;53.80;;;;;;5136698;27;20042;-70
2023/06/23 10:31:57;;;;;;;13.45;9.50;;;29.50;53.90;;;;;;5136455;27;20023;-70
2023/06/23 10:34:26;;;;;;;13.00;8.98;;;29.20;54.30;;;;;;5136391;27;20031;-70
2023/06/23 10:36:56;;;;;;;14.40;9.02;;;29.10;54.70;;;;;;5118966;27;20011;-70
2023/06/23 10:39:28;;;;;;;14.43;10.82;;;28.90;55.10;;;;;;5136127;27;20035;-70
2023/06/23 10:41:58;;;;;;;14.30;9.85;;;28.80;55.70;;;;;;5136267;27;20019;-70
2023/06/23 10:44:24;;;;;;;14.75;9.27;;;28.60;56.00;;;;;;5136131;27;20459;-70
2023/06/23 10:46:53;;;;;;;16.33;9.75;;;28.60;56.40;;;;;;5136737;27;20043;-70
2023/06/23 10:49:21;;;;;;;19.48;11.18;;;28.50;56.90;;;;;;5136104;27;20031;-70
2023/06/23 10:51:48;;;;;;;25.83;13.77;;;28.40;57.60;;;;;;5135162;27;20415;-69
2023/06/23 10:54:26;;;;;;;21.80;13.30;;;28.30;59.10;;;;;;5136625;27;20062;-69
2023/06/23 10:56:53;;;;;;;19.33;10.82;;;28.10;61.40;;;;;;5135946;27;20033;-69
2023/06/23 10:59:29;;;;;;;16.77;10.38;;;27.80;60.90;;;;;;5134640;28;20047;-69
2023/06/23 11:02:04;;;;;;;13.05;9.07;;;27.40;61.10;;;;;;5136330;27;20015;-69
2023/06/23 11:04:31;;;;;;;13.93;8.27;;;27.20;61.10;;;;;;5138033;27;20019;-69
2023/06/23 11:07:07;;;;;;;11.40;5.50;;;27.00;61.30;;;;;;5140203;27;20084;-69
2023/06/23 11:09:54;;;;;;;9.98;4.60;;;26.80;60.80;;;;;;5140125;27;20037;-69
2023/06/23 11:12:36;;;;;;;11.88;4.70;;;26.50;60.30;;;;;;5139094;27;20027;-69
2023/06/23 11:15:08;;;;;;;10.70;4.60;;;26.30;60.50;;;;;;5140664;27;20035;-69
2023/06/23 11:17:44;;;;;;;10.15;4.50;;;26.20;60.70;;;;;;5140089;27;20371;-69
2023/06/23 11:20:28;;;;;;;9.57;4.45;;;26.10;60.60;;;;;;5140233;27;20432;-69
2023/06/23 11:23:06;;;;;;;14.07;5.43;;;26.10;60.80;;;;;;5139899;27;20019;-69
2023/06/23 11:25:48;;;;;;;10.98;5.15;;;25.90;61.90;;;;;;5140174;27;20031;-69
2023/06/23 11:28:29;;;;;;;8.88;5.10;;;25.50;62.20;;;;;;5140277;27;20433;-69
2023/06/23 11:31:15;;;;;;;8.30;4.28;;;25.30;63.30;;;;;;5140008;27;20043;-69
2023/06/23 11:33:58;;;;;;;12.07;4.60;;;25.10;63.70;;;;;;5139931;27;20023;-69
2023/06/23 11:36:24;;;;;;;;;;;25.00;64.00;;;;;;5140025;27;20027;-69
2023/06/23 11:38:51;;;;;;;12.43;6.43;;;24.90;65.60;;;;;;5139589;27;19933;-69
2023/06/23 11:41:28;;;;;;;14.73;7.63;;;24.80;65.20;;;;;;5139974;27;20050;-69
2023/06/23 11:44:02;;;;;;;15.02;8.02;;;24.60;68.00;;;;;;5139144;27;20441;-69
2023/06/23 11:46:32;;;;;;;14.57;8.70;;;24.40;67.60;;;;;;5139750;27;20339;-69
2023/06/23 11:49:07;;;;;;;10.77;7.35;;;24.30;67.60;;;;;;5138327;27;20041;-69
2023/06/23 11:51:34;;;;;;;13.40;7.90;;;24.30;67.40;;;;;;5139624;27;20054;-69
2023/06/23 11:54:00;;;;;;;13.50;7.90;;;24.30;67.50;;;;;;5139165;27;20037;-69
2023/06/23 11:56:26;;;;;;;13.98;7.05;;;24.40;67.80;;;;;;5139267;27;20019;-70
2023/06/23 11:58:56;;;;;;;17.83;6.90;;;24.50;68.00;;;;;;5138829;27;20075;-71
2023/06/23 12:01:22;;;;;;;9.52;6.28;;;24.50;67.70;;;;;;5139156;27;20398;-73
2023/06/23 12:03:51;;;;;;;10.77;6.53;;;24.60;67.50;;;;;;5139536;27;20369;-73
2023/06/23 12:06:18;;;;;;;13.38;6.10;;;24.60;67.50;;;;;;5139546;27;20011;-74
2023/06/23 12:08:49;;;;;;;12.63;6.70;;;24.60;67.70;;;;;;5138817;27;20027;-73
2023/06/23 12:11:21;;;;;;;12.23;5.70;;;24.60;67.80;;;;;;5138874;27;20406;-72
2023/06/23 12:13:52;;;;;;;10.97;5.97;;;24.60;68.00;;;;;;5139478;27;20023;-73
2023/06/23 12:16:18;;;;;;;13.07;6.40;;;24.60;68.20;;;;;;5138650;27;20031;-69
2023/06/23 12:18:45;;;;;;;12.02;7.10;;;24.60;68.40;;;;;;5138701;27;20026;-71
2023/06/23 12:21:11;;;;;;;9.98;6.68;;;24.60;68.60;;;;;;5139062;27;20023;-73
2023/06/23 12:23:37;;;;;;;11.02;7.43;;;24.60;68.80;;;;;;5137679;27;20463;-72
2023/06/23 12:26:06;;;;;;;11.15;7.43;;;24.70;68.80;;;;;;5138677;27;20023;-72
2023/06/23 12:28:32;;;;;;;12.25;7.85;;;24.80;68.80;;;;;;5138469;27;20023;-71
2023/06/23 12:30:58;;;;;;;11.93;8.25;;;24.90;68.90;;;;;;5138541;27;20031;-70
2023/06/23 12:33:28;;;;;;;13.80;8.48;;;24.90;69.30;;;;;;5138509;27;20027;-69
2023/06/23 12:36:00;;;;;;;13.52;8.20;;;24.90;69.50;;;;;;5138961;27;20390;-69
2023/06/23 12:38:27;;;;;;;11.50;7.57;;;24.80;69.70;;;;;;5138422;27;20034;-69
2023/06/23 12:40:54;;;;;;;14.30;7.93;;;24.80;69.70;;;;;;5138634;27;20336;-70
2023/06/23 12:43:21;;;;;;;11.02;7.78;;;24.80;69.70;;;;;;5138863;27;20023;-69
2023/06/23 12:45:53;;;;;;;13.75;8.07;;;24.90;69.80;;;;;;5137264;27;20500;-70